sensor_id;sensor_type;location;lat;lon;timestamp;temperature;humidity
26707;DHT22;14319;49.422;10.934;2023-06-26T00:01:03;19.20;74.70
26707;DHT22;14319;49.422;10.934;2023-06-26T00:03:05;19.20;74.60
26707;DHT22;14319;49.422;10.934;2023-06-26T00:05:06;19.10;73.90
26707;DHT22;14319;49.422;10.934;2023-06-26T00:07:07;19.10;73.50
26707;DHT22;14319;49.422;10.934;2023-06-26T00:09:07;19.00;73.80
26707;DHT22;14319;49.422;10.934;2023-06-26T00:11:08;19.00;74.10
26707;DHT22;14319;49.422;10.934;2023-06-26T00:13:09;19.10;74.30
26707;DHT22;14319;49.422;10.934;2023-06-26T00:15:12;19.10;74.40
26707;DHT22;14319;49.422;10.934;2023-06-26T00:17:13;19.20;73.60
26707;DHT22;14319;49.422;10.934;2023-06-26T00:19:13;19.20;73.40
26707;DHT22;14319;49.422;10.934;2023-06-26T00:21:14;19.20;73.70
26707;DHT22;14319;49.422;10.934;2023-06-26T00:23:18;19.00;74.70
26707;DHT22;14319;49.422;10.934;2023-06-26T00:25:18;19.10;74.90
26707;DHT22;14319;49.422;10.934;2023-06-26T00:27:23;19.10;75.10
26707;DHT22;14319;49.422;10.934;2023-06-26T00:29:23;19.00;75.10
26707;DHT22;14319;49.422;10.934;2023-06-26T00:31:25;18.80;75.20
26707;DHT22;14319;49.422;10.934;2023-06-26T00:33:25;18.90;75.40
26707;DHT22;14319;49.422;10.934;2023-06-26T00:35:26;18.90;74.30
26707;DHT22;14319;49.422;10.934;2023-06-26T00:37:26;18.80;74.70
26707;DHT22;14319;49.422;10.934;2023-06-26T00:39:27;18.80;75.30
26707;DHT22;14319;49.422;10.934;2023-06-26T00:41:28;18.60;75.30
26707;DHT22;14319;49.422;10.934;2023-06-26T00:43:29;18.30;76.10
26707;DHT22;14319;49.422;10.934;2023-06-26T00:45:29;18.10;76.10
26707;DHT22;14319;49.422;10.934;2023-06-26T00:47:30;18.00;76.90
26707;DHT22;14319;49.422;10.934;2023-06-26T00:49:30;18.10;77.50
26707;DHT22;14319;49.422;10.934;2023-06-26T00:51:31;18.00;77.30
26707;DHT22;14319;49.422;10.934;2023-06-26T00:53:33;18.10;77.40
26707;DHT22;14319;49.422;10.934;2023-06-26T00:55:33;18.10;77.50
26707;DHT22;14319;49.422;10.934;2023-06-26T00:57:34;18.10;76.80
26707;DHT22;14319;49.422;10.934;2023-06-26T00:59:35;18.20;76.80
26707;DHT22;14319;49.422;10.934;2023-06-26T01:01:36;18.20;77.20
26707;DHT22;14319;49.422;10.934;2023-06-26T01:03:36;18.20;76.70
26707;DHT22;14319;49.422;10.934;2023-06-26T01:05:40;18.20;76.30
26707;DHT22;14319;49.422;10.934;2023-06-26T01:07:40;18.30;76.70
26707;DHT22;14319;49.422;10.934;2023-06-26T01:09:41;18.20;76.40
26707;DHT22;14319;49.422;10.934;2023-06-26T01:11:42;18.10;76.90
26707;DHT22;14319;49.422;10.934;2023-06-26T01:13:43;18.20;75.50
26707;DHT22;14319;49.422;10.934;2023-06-26T01:15:46;18.20;75.70
26707;DHT22;14319;49.422;10.934;2023-06-26T01:17:49;18.30;75.60
26707;DHT22;14319;49.422;10.934;2023-06-26T01:19:52;18.40;75.30
26707;DHT22;14319;49.422;10.934;2023-06-26T01:22:22;18.50;74.90
26707;DHT22;14319;49.422;10.934;2023-06-26T01:24:19;18.50;74.10
26707;DHT22;14319;49.422;10.934;2023-06-26T01:26:29;18.50;73.90
26707;DHT22;14319;49.422;10.934;2023-06-26T01:28:32;18.40;74.10
26707;DHT22;14319;49.422;10.934;2023-06-26T01:30:37;18.40;74.50
26707;DHT22;14319;49.422;10.934;2023-06-26T01:32:39;18.40;74.80
26707;DHT22;14319;49.422;10.934;2023-06-26T01:34:40;18.30;75.40
26707;DHT22;14319;49.422;10.934;2023-06-26T01:36:41;18.20;75.80
26707;DHT22;14319;49.422;10.934;2023-06-26T01:38:41;18.10;76.00
26707;DHT22;14319;49.422;10.934;2023-06-26T01:40:42;17.90;76.90
26707;DHT22;14319;49.422;10.934;2023-06-26T01:42:44;17.70;77.80
26707;DHT22;14319;49.422;10.934;2023-06-26T01:44:46;17.50;78.60
26707;DHT22;14319;49.422;10.934;2023-06-26T01:47:00;17.50;79.00
26707;DHT22;14319;49.422;10.934;2023-06-26T01:49:31;17.60;79.00
26707;DHT22;14319;49.422;10.934;2023-06-26T01:51:35;17.70;78.70
26707;DHT22;14319;49.422;10.934;2023-06-26T01:53:41;17.60;78.90
26707;DHT22;14319;49.422;10.934;2023-06-26T01:55:49;17.50;79.30
26707;DHT22;14319;49.422;10.934;2023-06-26T01:57:52;17.50;79.10
26707;DHT22;14319;49.422;10.934;2023-06-26T01:59:55;17.60;78.50
26707;DHT22;14319;49.422;10.934;2023-06-26T02:01:56;17.60;78.40
26707;DHT22;14319;49.422;10.934;2023-06-26T02:03:57;17.50;78.30
26707;DHT22;14319;49.422;10.934;2023-06-26T02:05:57;17.30;78.50
26707;DHT22;14319;49.422;10.934;2023-06-26T02:08:00;17.30;79.00
26707;DHT22;14319;49.422;10.934;2023-06-26T02:10:05;17.30;79.20
26707;DHT22;14319;49.422;10.934;2023-06-26T02:12:07;17.20;79.70
26707;DHT22;14319;49.422;10.934;2023-06-26T02:14:08;17.30;79.50
26707;DHT22;14319;49.422;10.934;2023-06-26T02:16:09;17.40;78.70
26707;DHT22;14319;49.422;10.934;2023-06-26T02:18:10;17.50;78.40
26707;DHT22;14319;49.422;10.934;2023-06-26T02:20:10;17.40;78.00
26707;DHT22;14319;49.422;10.934;2023-06-26T02:22:11;17.40;78.10
26707;DHT22;14319;49.422;10.934;2023-06-26T02:24:12;17.40;78.20
26707;DHT22;14319;49.422;10.934;2023-06-26T02:26:12;17.40;77.30
26707;DHT22;14319;49.422;10.934;2023-06-26T02:28:16;17.40;77.30
26707;DHT22;14319;49.422;10.934;2023-06-26T02:30:17;17.30;77.50
26707;DHT22;14319;49.422;10.934;2023-06-26T02:32:18;17.20;77.60
26707;DHT22;14319;49.422;10.934;2023-06-26T02:34:18;17.10;77.80
26707;DHT22;14319;49.422;10.934;2023-06-26T02:36:19;17.20;78.30
26707;DHT22;14319;49.422;10.934;2023-06-26T02:38:19;17.20;77.80
26707;DHT22;14319;49.422;10.934;2023-06-26T02:40:21;17.30;76.90
26707;DHT22;14319;49.422;10.934;2023-06-26T02:42:22;17.30;76.00
26707;DHT22;14319;49.422;10.934;2023-06-26T02:44:23;17.20;75.80
26707;DHT22;14319;49.422;10.934;2023-06-26T02:46:23;17.10;76.90
26707;DHT22;14319;49.422;10.934;2023-06-26T02:48:24;17.10;76.80
26707;DHT22;14319;49.422;10.934;2023-06-26T02:50:25;17.00;77.00
26707;DHT22;14319;49.422;10.934;2023-06-26T02:52:39;16.90;77.30
26707;DHT22;14319;49.422;10.934;2023-06-26T02:54:40;16.80;77.70
26707;DHT22;14319;49.422;10.934;2023-06-26T02:56:40;16.80;78.40
26707;DHT22;14319;49.422;10.934;2023-06-26T02:58:41;16.70;78.90
26707;DHT22;14319;49.422;10.934;2023-06-26T03:00:42;16.80;79.10
26707;DHT22;14319;49.422;10.934;2023-06-26T03:02:48;16.80;79.00
26707;DHT22;14319;49.422;10.934;2023-06-26T03:04:52;16.70;78.50
26707;DHT22;14319;49.422;10.934;2023-06-26T03:06:53;16.40;79.30
26707;DHT22;14319;49.422;10.934;2023-06-26T03:08:54;16.30;79.80
26707;DHT22;14319;49.422;10.934;2023-06-26T03:10:54;16.20;80.80
26707;DHT22;14319;49.422;10.934;2023-06-26T03:12:55;16.10;81.10
26707;DHT22;14319;49.422;10.934;2023-06-26T03:14:55;16.10;80.80
26707;DHT22;14319;49.422;10.934;2023-06-26T03:16:56;16.20;80.90
26707;DHT22;14319;49.422;10.934;2023-06-26T03:18:59;16.30;80.30
26707;DHT22;14319;49.422;10.934;2023-06-26T03:21:00;16.40;80.00
26707;DHT22;14319;49.422;10.934;2023-06-26T03:23:01;16.40;79.30
26707;DHT22;14319;49.422;10.934;2023-06-26T03:25:02;16.30;79.60
26707;DHT22;14319;49.422;10.934;2023-06-26T03:27:05;16.10;80.80
26707;DHT22;14319;49.422;10.934;2023-06-26T03:29:05;16.20;81.20
26707;DHT22;14319;49.422;10.934;2023-06-26T03:31:06;16.20;81.10
26707;DHT22;14319;49.422;10.934;2023-06-26T03:33:07;16.20;81.30
26707;DHT22;14319;49.422;10.934;2023-06-26T03:35:08;16.10;80.90
26707;DHT22;14319;49.422;10.934;2023-06-26T03:37:10;16.10;81.20
26707;DHT22;14319;49.422;10.934;2023-06-26T03:39:11;16.20;80.90
26707;DHT22;14319;49.422;10.934;2023-06-26T03:41:11;16.20;80.90
26707;DHT22;14319;49.422;10.934;2023-06-26T03:43:12;16.20;82.00
26707;DHT22;14319;49.422;10.934;2023-06-26T03:45:20;16.10;81.90
26707;DHT22;14319;49.422;10.934;2023-06-26T03:47:22;15.90;81.80
26707;DHT22;14319;49.422;10.934;2023-06-26T03:49:23;15.70;83.30
26707;DHT22;14319;49.422;10.934;2023-06-26T03:51:23;15.70;83.30
26707;DHT22;14319;49.422;10.934;2023-06-26T03:53:24;15.70;83.60
26707;DHT22;14319;49.422;10.934;2023-06-26T03:55:25;15.70;83.80
26707;DHT22;14319;49.422;10.934;2023-06-26T03:57:26;15.70;84.40
26707;DHT22;14319;49.422;10.934;2023-06-26T03:59:26;15.60;84.80
26707;DHT22;14319;49.422;10.934;2023-06-26T04:01:27;15.60;85.20
26707;DHT22;14319;49.422;10.934;2023-06-26T04:03:28;15.60;85.00
26707;DHT22;14319;49.422;10.934;2023-06-26T04:05:29;15.60;85.30
26707;DHT22;14319;49.422;10.934;2023-06-26T04:07:29;15.60;85.10
26707;DHT22;14319;49.422;10.934;2023-06-26T04:09:31;15.80;85.60
26707;DHT22;14319;49.422;10.934;2023-06-26T04:11:32;15.70;85.60
26707;DHT22;14319;49.422;10.934;2023-06-26T04:13:32;15.70;85.40
26707;DHT22;14319;49.422;10.934;2023-06-26T04:15:33;15.60;86.10
26707;DHT22;14319;49.422;10.934;2023-06-26T04:17:33;15.60;86.80
26707;DHT22;14319;49.422;10.934;2023-06-26T04:19:34;15.70;86.50
26707;DHT22;14319;49.422;10.934;2023-06-26T04:21:36;15.80;85.50
26707;DHT22;14319;49.422;10.934;2023-06-26T04:23:38;15.80;85.70
26707;DHT22;14319;49.422;10.934;2023-06-26T04:25:39;15.70;86.40
26707;DHT22;14319;49.422;10.934;2023-06-26T04:27:39;15.60;87.20
26707;DHT22;14319;49.422;10.934;2023-06-26T04:29:40;15.60;87.90
26707;DHT22;14319;49.422;10.934;2023-06-26T04:31:41;15.60;88.40
26707;DHT22;14319;49.422;10.934;2023-06-26T04:33:41;15.60;88.20
26707;DHT22;14319;49.422;10.934;2023-06-26T04:35:42;15.60;88.20
26707;DHT22;14319;49.422;10.934;2023-06-26T04:37:44;15.60;86.80
26707;DHT22;14319;49.422;10.934;2023-06-26T04:39:45;15.60;87.80
26707;DHT22;14319;49.422;10.934;2023-06-26T04:41:46;15.70;90.40
26707;DHT22;14319;49.422;10.934;2023-06-26T04:43:46;15.70;89.60
26707;DHT22;14319;49.422;10.934;2023-06-26T04:45:47;15.70;90.30
26707;DHT22;14319;49.422;10.934;2023-06-26T04:47:48;15.60;91.70
26707;DHT22;14319;49.422;10.934;2023-06-26T04:49:48;15.60;91.70
26707;DHT22;14319;49.422;10.934;2023-06-26T04:51:49;15.60;91.30
26707;DHT22;14319;49.422;10.934;2023-06-26T04:53:51;15.70;91.70
26707;DHT22;14319;49.422;10.934;2023-06-26T04:55:52;15.60;91.20
26707;DHT22;14319;49.422;10.934;2023-06-26T04:57:53;15.70;90.90
26707;DHT22;14319;49.422;10.934;2023-06-26T04:59:53;15.60;90.90
26707;DHT22;14319;49.422;10.934;2023-06-26T05:01:54;15.60;91.70
26707;DHT22;14319;49.422;10.934;2023-06-26T05:03:57;15.70;91.40
26707;DHT22;14319;49.422;10.934;2023-06-26T05:05:58;15.70;90.90
26707;DHT22;14319;49.422;10.934;2023-06-26T05:08:13;15.80;91.20
26707;DHT22;14319;49.422;10.934;2023-06-26T05:10:14;15.80;92.20
26707;DHT22;14319;49.422;10.934;2023-06-26T05:12:16;16.00;92.50
26707;DHT22;14319;49.422;10.934;2023-06-26T05:14:16;16.10;91.80
26707;DHT22;14319;49.422;10.934;2023-06-26T05:16:17;16.30;90.90
26707;DHT22;14319;49.422;10.934;2023-06-26T05:18:17;16.40;88.90
26707;DHT22;14319;49.422;10.934;2023-06-26T05:20:18;16.60;88.90
26707;DHT22;14319;49.422;10.934;2023-06-26T05:22:19;16.70;87.50
26707;DHT22;14319;49.422;10.934;2023-06-26T05:24:21;16.70;87.50
26707;DHT22;14319;49.422;10.934;2023-06-26T05:26:23;16.90;87.50
26707;DHT22;14319;49.422;10.934;2023-06-26T05:28:25;17.00;86.70
26707;DHT22;14319;49.422;10.934;2023-06-26T05:30:27;17.10;87.00
26707;DHT22;14319;49.422;10.934;2023-06-26T05:32:29;17.20;86.20
26707;DHT22;14319;49.422;10.934;2023-06-26T05:34:31;17.30;86.00
26707;DHT22;14319;49.422;10.934;2023-06-26T05:36:34;17.40;86.00
26707;DHT22;14319;49.422;10.934;2023-06-26T05:38:35;17.50;86.40
26707;DHT22;14319;49.422;10.934;2023-06-26T05:40:36;17.50;86.40
26707;DHT22;14319;49.422;10.934;2023-06-26T05:42:37;17.60;86.20
26707;DHT22;14319;49.422;10.934;2023-06-26T05:44:37;17.70;85.50
26707;DHT22;14319;49.422;10.934;2023-06-26T05:46:38;17.70;85.00
26707;DHT22;14319;49.422;10.934;2023-06-26T05:48:39;17.80;85.20
26707;DHT22;14319;49.422;10.934;2023-06-26T05:50:40;17.80;85.80
26707;DHT22;14319;49.422;10.934;2023-06-26T05:52:42;17.90;85.80
26707;DHT22;14319;49.422;10.934;2023-06-26T05:54:44;17.90;85.20
26707;DHT22;14319;49.422;10.934;2023-06-26T05:56:46;18.00;84.40
26707;DHT22;14319;49.422;10.934;2023-06-26T05:58:47;18.00;84.00
26707;DHT22;14319;49.422;10.934;2023-06-26T06:00:48;18.10;84.10
26707;DHT22;14319;49.422;10.934;2023-06-26T06:02:48;18.20;83.90
26707;DHT22;14319;49.422;10.934;2023-06-26T06:04:49;18.20;83.90
26707;DHT22;14319;49.422;10.934;2023-06-26T06:06:50;18.30;83.80
26707;DHT22;14319;49.422;10.934;2023-06-26T06:08:50;18.40;84.20
26707;DHT22;14319;49.422;10.934;2023-06-26T06:10:51;18.40;83.60
26707;DHT22;14319;49.422;10.934;2023-06-26T06:12:51;18.50;83.60
26707;DHT22;14319;49.422;10.934;2023-06-26T06:14:53;18.50;83.40
26707;DHT22;14319;49.422;10.934;2023-06-26T06:16:53;18.60;83.20
26707;DHT22;14319;49.422;10.934;2023-06-26T06:18:54;18.60;83.10
26707;DHT22;14319;49.422;10.934;2023-06-26T06:20:55;18.70;83.10
26707;DHT22;14319;49.422;10.934;2023-06-26T06:22:56;18.70;83.10
26707;DHT22;14319;49.422;10.934;2023-06-26T06:24:56;18.80;82.00
26707;DHT22;14319;49.422;10.934;2023-06-26T06:26:57;18.90;83.40
26707;DHT22;14319;49.422;10.934;2023-06-26T06:28:57;18.90;82.10
26707;DHT22;14319;49.422;10.934;2023-06-26T06:30:58;19.00;81.90
26707;DHT22;14319;49.422;10.934;2023-06-26T06:32:58;19.10;81.60
26707;DHT22;14319;49.422;10.934;2023-06-26T06:35:02;19.20;82.20
26707;DHT22;14319;49.422;10.934;2023-06-26T06:37:12;19.30;82.00
26707;DHT22;14319;49.422;10.934;2023-06-26T06:39:12;19.40;81.80
26707;DHT22;14319;49.422;10.934;2023-06-26T06:41:13;19.40;81.50
26707;DHT22;14319;49.422;10.934;2023-06-26T06:43:14;19.50;80.90
26707;DHT22;14319;49.422;10.934;2023-06-26T06:45:14;19.60;80.90
26707;DHT22;14319;49.422;10.934;2023-06-26T06:47:15;19.70;81.00
26707;DHT22;14319;49.422;10.934;2023-06-26T06:49:15;19.70;80.90
26707;DHT22;14319;49.422;10.934;2023-06-26T06:51:16;19.80;80.80
26707;DHT22;14319;49.422;10.934;2023-06-26T06:53:17;19.80;80.90
26707;DHT22;14319;49.422;10.934;2023-06-26T06:55:20;19.80;80.80
26707;DHT22;14319;49.422;10.934;2023-06-26T06:57:21;19.90;80.60
26707;DHT22;14319;49.422;10.934;2023-06-26T06:59:22;20.00;80.10
26707;DHT22;14319;49.422;10.934;2023-06-26T07:01:22;20.10;78.80
26707;DHT22;14319;49.422;10.934;2023-06-26T07:03:23;20.20;79.00
26707;DHT22;14319;49.422;10.934;2023-06-26T07:05:23;20.30;78.80
26707;DHT22;14319;49.422;10.934;2023-06-26T07:07:28;20.40;78.50
26707;DHT22;14319;49.422;10.934;2023-06-26T07:09:31;20.50;78.00
26707;DHT22;14319;49.422;10.934;2023-06-26T07:11:31;20.80;77.70
26707;DHT22;14319;49.422;10.934;2023-06-26T07:13:32;21.00;78.50
26707;DHT22;14319;49.422;10.934;2023-06-26T07:15:32;21.10;77.20
26707;DHT22;14319;49.422;10.934;2023-06-26T07:17:34;21.20;75.70
26707;DHT22;14319;49.422;10.934;2023-06-26T07:19:35;21.30;72.60
26707;DHT22;14319;49.422;10.934;2023-06-26T07:21:35;21.40;66.00
26707;DHT22;14319;49.422;10.934;2023-06-26T07:23:36;21.60;68.10
26707;DHT22;14319;49.422;10.934;2023-06-26T07:25:36;21.90;71.10
26707;DHT22;14319;49.422;10.934;2023-06-26T07:27:38;21.90;64.10
26707;DHT22;14319;49.422;10.934;2023-06-26T07:29:38;22.00;65.10
26707;DHT22;14319;49.422;10.934;2023-06-26T07:31:39;22.20;64.80
26707;DHT22;14319;49.422;10.934;2023-06-26T07:33:40;22.20;66.60
26707;DHT22;14319;49.422;10.934;2023-06-26T07:35:40;22.40;67.60
26707;DHT22;14319;49.422;10.934;2023-06-26T07:37:41;22.40;69.20
26707;DHT22;14319;49.422;10.934;2023-06-26T07:39:41;22.50;63.30
26707;DHT22;14319;49.422;10.934;2023-06-26T07:41:42;22.70;59.90
26707;DHT22;14319;49.422;10.934;2023-06-26T07:43:43;23.00;59.60
26707;DHT22;14319;49.422;10.934;2023-06-26T07:45:43;23.00;60.40
26707;DHT22;14319;49.422;10.934;2023-06-26T07:47:44;23.10;63.20
26707;DHT22;14319;49.422;10.934;2023-06-26T07:49:45;23.00;64.60
26707;DHT22;14319;49.422;10.934;2023-06-26T07:51:46;23.10;63.30
26707;DHT22;14319;49.422;10.934;2023-06-26T07:53:47;23.00;63.80
26707;DHT22;14319;49.422;10.934;2023-06-26T07:55:47;23.20;59.70
26707;DHT22;14319;49.422;10.934;2023-06-26T07:57:48;23.60;60.70
26707;DHT22;14319;49.422;10.934;2023-06-26T07:59:50;23.80;56.40
26707;DHT22;14319;49.422;10.934;2023-06-26T08:01:53;23.70;56.50
26707;DHT22;14319;49.422;10.934;2023-06-26T08:03:53;23.80;56.90
26707;DHT22;14319;49.422;10.934;2023-06-26T08:05:54;23.90;57.20
26707;DHT22;14319;49.422;10.934;2023-06-26T08:07:55;23.80;60.10
26707;DHT22;14319;49.422;10.934;2023-06-26T08:09:56;23.70;61.90
26707;DHT22;14319;49.422;10.934;2023-06-26T08:11:56;23.60;62.00
26707;DHT22;14319;49.422;10.934;2023-06-26T08:13:57;23.50;57.60
26707;DHT22;14319;49.422;10.934;2023-06-26T08:15:58;23.70;57.90
26707;DHT22;14319;49.422;10.934;2023-06-26T08:17:58;24.00;57.50
26707;DHT22;14319;49.422;10.934;2023-06-26T08:19:59;24.00;58.10
26707;DHT22;14319;49.422;10.934;2023-06-26T08:21:59;23.90;55.90
26707;DHT22;14319;49.422;10.934;2023-06-26T08:24:00;23.90;57.10
26707;DHT22;14319;49.422;10.934;2023-06-26T08:26:00;23.80;56.30
26707;DHT22;14319;49.422;10.934;2023-06-26T08:28:01;23.90;56.00
26707;DHT22;14319;49.422;10.934;2023-06-26T08:30:02;24.20;55.30
26707;DHT22;14319;49.422;10.934;2023-06-26T08:32:03;24.20;53.80
26707;DHT22;14319;49.422;10.934;2023-06-26T08:34:05;24.30;55.10
26707;DHT22;14319;49.422;10.934;2023-06-26T08:36:05;24.40;53.60
26707;DHT22;14319;49.422;10.934;2023-06-26T08:38:06;24.40;53.20
26707;DHT22;14319;49.422;10.934;2023-06-26T08:40:07;24.50;54.10
26707;DHT22;14319;49.422;10.934;2023-06-26T08:42:08;24.40;55.70
26707;DHT22;14319;49.422;10.934;2023-06-26T08:44:09;24.40;54.60
26707;DHT22;14319;49.422;10.934;2023-06-26T08:46:09;24.70;55.60
26707;DHT22;14319;49.422;10.934;2023-06-26T08:48:10;24.90;55.50
26707;DHT22;14319;49.422;10.934;2023-06-26T08:50:13;25.00;52.80
26707;DHT22;14319;49.422;10.934;2023-06-26T08:52:19;25.00;53.60
26707;DHT22;14319;49.422;10.934;2023-06-26T08:54:31;25.10;54.10
26707;DHT22;14319;49.422;10.934;2023-06-26T08:56:40;25.40;53.10
26707;DHT22;14319;49.422;10.934;2023-06-26T08:58:42;25.50;51.10
26707;DHT22;14319;49.422;10.934;2023-06-26T09:00:43;25.50;51.70
26707;DHT22;14319;49.422;10.934;2023-06-26T09:02:44;25.40;54.60
26707;DHT22;14319;49.422;10.934;2023-06-26T09:04:45;25.50;52.60
26707;DHT22;14319;49.422;10.934;2023-06-26T09:06:45;25.50;52.60
26707;DHT22;14319;49.422;10.934;2023-06-26T09:08:46;25.60;51.40
26707;DHT22;14319;49.422;10.934;2023-06-26T09:10:47;25.60;50.60
26707;DHT22;14319;49.422;10.934;2023-06-26T09:12:48;25.50;51.50
26707;DHT22;14319;49.422;10.934;2023-06-26T09:14:49;25.50;51.50
26707;DHT22;14319;49.422;10.934;2023-06-26T09:16:50;25.40;52.10
26707;DHT22;14319;49.422;10.934;2023-06-26T09:18:52;25.40;51.50
26707;DHT22;14319;49.422;10.934;2023-06-26T09:20:52;25.50;50.80
26707;DHT22;14319;49.422;10.934;2023-06-26T09:22:53;25.50;50.60
26707;DHT22;14319;49.422;10.934;2023-06-26T09:24:54;25.40;50.90
26707;DHT22;14319;49.422;10.934;2023-06-26T09:26:55;25.60;51.30
26707;DHT22;14319;49.422;10.934;2023-06-26T09:28:56;25.80;48.60
26707;DHT22;14319;49.422;10.934;2023-06-26T09:31:01;25.90;48.60
26707;DHT22;14319;49.422;10.934;2023-06-26T09:33:18;26.00;48.40
26707;DHT22;14319;49.422;10.934;2023-06-26T09:35:20;26.00;48.30
26707;DHT22;14319;49.422;10.934;2023-06-26T09:37:20;26.10;50.50
26707;DHT22;14319;49.422;10.934;2023-06-26T09:39:21;26.10;48.50
26707;DHT22;14319;49.422;10.934;2023-06-26T09:41:22;26.00;48.50
26707;DHT22;14319;49.422;10.934;2023-06-26T09:43:23;26.00;48.10
26707;DHT22;14319;49.422;10.934;2023-06-26T09:45:23;26.10;48.20
26707;DHT22;14319;49.422;10.934;2023-06-26T09:47:24;26.40;46.50
26707;DHT22;14319;49.422;10.934;2023-06-26T09:49:25;26.40;45.90
26707;DHT22;14319;49.422;10.934;2023-06-26T09:51:26;26.40;47.20
26707;DHT22;14319;49.422;10.934;2023-06-26T09:53:26;26.40;48.30
26707;DHT22;14319;49.422;10.934;2023-06-26T09:55:27;26.40;48.70
26707;DHT22;14319;49.422;10.934;2023-06-26T09:57:28;26.20;49.00
26707;DHT22;14319;49.422;10.934;2023-06-26T09:59:28;26.20;48.30
26707;DHT22;14319;49.422;10.934;2023-06-26T10:01:31;26.20;49.00
26707;DHT22;14319;49.422;10.934;2023-06-26T10:03:31;26.20;48.50
26707;DHT22;14319;49.422;10.934;2023-06-26T10:05:32;26.40;47.80
26707;DHT22;14319;49.422;10.934;2023-06-26T10:07:33;26.70;48.20
26707;DHT22;14319;49.422;10.934;2023-06-26T10:09:38;26.80;48.40
26707;DHT22;14319;49.422;10.934;2023-06-26T10:13:56;26.90;47.50
26707;DHT22;14319;49.422;10.934;2023-06-26T10:15:59;27.10;47.10
26707;DHT22;14319;49.422;10.934;2023-06-26T10:18:01;27.10;48.50
26707;DHT22;14319;49.422;10.934;2023-06-26T10:20:02;27.10;46.80
26707;DHT22;14319;49.422;10.934;2023-06-26T10:22:04;26.90;46.30
26707;DHT22;14319;49.422;10.934;2023-06-26T10:24:06;26.90;47.10
26707;DHT22;14319;49.422;10.934;2023-06-26T10:26:08;27.00;46.60
26707;DHT22;14319;49.422;10.934;2023-06-26T10:28:11;27.00;44.30
26707;DHT22;14319;49.422;10.934;2023-06-26T10:30:18;27.10;45.30
26707;DHT22;14319;49.422;10.934;2023-06-26T10:32:25;27.00;45.70
26707;DHT22;14319;49.422;10.934;2023-06-26T10:34:26;26.90;43.10
26707;DHT22;14319;49.422;10.934;2023-06-26T10:36:30;26.90;43.60
26707;DHT22;14319;49.422;10.934;2023-06-26T10:39:06;27.10;43.60
26707;DHT22;14319;49.422;10.934;2023-06-26T10:41:13;27.30;41.70
26707;DHT22;14319;49.422;10.934;2023-06-26T10:43:16;27.30;42.30
26707;DHT22;14319;49.422;10.934;2023-06-26T10:45:20;27.20;42.80
26707;DHT22;14319;49.422;10.934;2023-06-26T10:47:31;27.10;42.80
26707;DHT22;14319;49.422;10.934;2023-06-26T10:49:32;27.10;44.40
26707;DHT22;14319;49.422;10.934;2023-06-26T10:51:32;27.10;43.40
26707;DHT22;14319;49.422;10.934;2023-06-26T10:53:33;27.20;44.20
26707;DHT22;14319;49.422;10.934;2023-06-26T10:55:37;27.20;42.70
26707;DHT22;14319;49.422;10.934;2023-06-26T10:57:45;27.30;43.20
26707;DHT22;14319;49.422;10.934;2023-06-26T10:59:46;27.50;42.80
26707;DHT22;14319;49.422;10.934;2023-06-26T11:01:57;27.60;41.30
26707;DHT22;14319;49.422;10.934;2023-06-26T11:04:03;27.60;42.40
26707;DHT22;14319;49.422;10.934;2023-06-26T11:06:20;27.70;42.40
26707;DHT22;14319;49.422;10.934;2023-06-26T11:08:44;27.70;42.40
26707;DHT22;14319;49.422;10.934;2023-06-26T11:10:50;27.60;43.60
26707;DHT22;14319;49.422;10.934;2023-06-26T11:12:53;27.70;42.20
26707;DHT22;14319;49.422;10.934;2023-06-26T11:14:54;27.70;41.10
26707;DHT22;14319;49.422;10.934;2023-06-26T11:16:56;27.80;40.30
26707;DHT22;14319;49.422;10.934;2023-06-26T11:18:58;27.70;43.80
26707;DHT22;14319;49.422;10.934;2023-06-26T11:21:09;27.80;40.10
26707;DHT22;14319;49.422;10.934;2023-06-26T11:23:11;27.80;40.30
26707;DHT22;14319;49.422;10.934;2023-06-26T11:25:12;27.90;40.20
26707;DHT22;14319;49.422;10.934;2023-06-26T11:27:12;27.90;42.00
26707;DHT22;14319;49.422;10.934;2023-06-26T11:29:13;27.90;42.20
26707;DHT22;14319;49.422;10.934;2023-06-26T11:31:30;28.00;43.40
26707;DHT22;14319;49.422;10.934;2023-06-26T11:33:30;28.00;43.70
26707;DHT22;14319;49.422;10.934;2023-06-26T11:35:31;28.00;40.70
26707;DHT22;14319;49.422;10.934;2023-06-26T11:37:32;28.00;41.80
26707;DHT22;14319;49.422;10.934;2023-06-26T11:39:33;27.90;42.40
26707;DHT22;14319;49.422;10.934;2023-06-26T11:41:38;28.00;43.70
26707;DHT22;14319;49.422;10.934;2023-06-26T11:43:39;28.00;42.90
26707;DHT22;14319;49.422;10.934;2023-06-26T11:45:40;28.00;42.20
26707;DHT22;14319;49.422;10.934;2023-06-26T11:47:40;27.90;43.40
26707;DHT22;14319;49.422;10.934;2023-06-26T11:49:45;27.90;43.00
26707;DHT22;14319;49.422;10.934;2023-06-26T11:51:46;28.00;42.70
26707;DHT22;14319;49.422;10.934;2023-06-26T11:53:47;28.10;42.70
26707;DHT22;14319;49.422;10.934;2023-06-26T11:55:48;28.10;42.00
26707;DHT22;14319;49.422;10.934;2023-06-26T11:57:50;28.10;43.40
26707;DHT22;14319;49.422;10.934;2023-06-26T11:59:51;28.30;43.10
26707;DHT22;14319;49.422;10.934;2023-06-26T12:01:52;28.40;41.20
26707;DHT22;14319;49.422;10.934;2023-06-26T12:03:57;28.40;41.50
26707;DHT22;14319;49.422;10.934;2023-06-26T12:05:59;28.40;40.60
26707;DHT22;14319;49.422;10.934;2023-06-26T12:08:01;28.40;43.90
26707;DHT22;14319;49.422;10.934;2023-06-26T12:10:04;28.40;42.00
26707;DHT22;14319;49.422;10.934;2023-06-26T12:12:05;28.30;42.20
26707;DHT22;14319;49.422;10.934;2023-06-26T12:14:06;28.30;41.20
26707;DHT22;14319;49.422;10.934;2023-06-26T12:16:07;28.40;42.60
26707;DHT22;14319;49.422;10.934;2023-06-26T12:18:09;28.40;42.80
26707;DHT22;14319;49.422;10.934;2023-06-26T12:20:22;28.40;40.50
26707;DHT22;14319;49.422;10.934;2023-06-26T12:22:23;28.50;40.20
26707;DHT22;14319;49.422;10.934;2023-06-26T12:24:24;28.60;41.10
26707;DHT22;14319;49.422;10.934;2023-06-26T12:26:27;28.60;42.00
26707;DHT22;14319;49.422;10.934;2023-06-26T12:28:36;28.60;41.40
26707;DHT22;14319;49.422;10.934;2023-06-26T12:30:37;28.70;41.40
26707;DHT22;14319;49.422;10.934;2023-06-26T12:32:38;28.70;41.70
26707;DHT22;14319;49.422;10.934;2023-06-26T12:34:39;28.80;40.30
26707;DHT22;14319;49.422;10.934;2023-06-26T12:36:44;28.70;41.30
26707;DHT22;14319;49.422;10.934;2023-06-26T12:38:45;28.80;41.30
26707;DHT22;14319;49.422;10.934;2023-06-26T12:40:46;28.80;40.80